sensor_id;sensor_type;location;lat;lon;timestamp;P1;durP1;ratioP1;P2;durP2;ratioP2
13698;SDS011;6921;53.642;9.956;2022-09-29T00:01:17;14.63;;;9.40;;
13698;SDS011;6921;53.642;9.956;2022-09-29T00:03:20;13.53;;;9.40;;
13698;SDS011;6921;53.642;9.956;2022-09-29T00:05:25;15.80;;;9.67;;
13698;SDS011;6921;53.642;9.956;2022-09-29T00:07:28;16.17;;;10.30;;
13698;SDS011;6921;53.642;9.956;2022-09-29T00:09:32;14.50;;;9.70;;
13698;SDS011;6921;53.642;9.956;2022-09-29T00:11:36;14.37;;;9.17;;
13698;SDS011;6921;53.642;9.956;2022-09-29T00:13:39;13.60;;;9.53;;
13698;SDS011;6921;53.642;9.956;2022-09-29T00:15:43;14.10;;;10.00;;
13698;SDS011;6921;53.642;9.956;2022-09-29T00:17:46;18.07;;;10.13;;
13698;SDS011;6921;53.642;9.956;2022-09-29T00:20:09;13.83;;;9.23;;
13698;SDS011;6921;53.642;9.956;2022-09-29T00:22:13;14.03;;;8.67;;
13698;SDS011;6921;53.642;9.956;2022-09-29T00:24:16;15.97;;;9.80;;
13698;SDS011;6921;53.642;9.956;2022-09-29T00:26:20;14.80;;;9.77;;
13698;SDS011;6921;53.642;9.956;2022-09-29T00:28:26;13.60;;;9.50;;
13698;SDS011;6921;53.642;9.956;2022-09-29T00:30:29;15.23;;;9.30;;
13698;SDS011;6921;53.642;9.956;2022-09-29T00:32:32;13.10;;;9.30;;
13698;SDS011;6921;53.642;9.956;2022-09-29T00:34:35;12.97;;;9.13;;
13698;SDS011;6921;53.642;9.956;2022-09-29T00:36:38;12.47;;;8.90;;
13698;SDS011;6921;53.642;9.956;2022-09-29T00:38:42;14.97;;;9.60;;
13698;SDS011;6921;53.642;9.956;2022-09-29T00:40:46;15.50;;;10.00;;
13698;SDS011;6921;53.642;9.956;2022-09-29T00:42:50;14.70;;;8.73;;
13698;SDS011;6921;53.642;9.956;2022-09-29T00:44:56;14.40;;;9.30;;
13698;SDS011;6921;53.642;9.956;2022-09-29T00:47:08;14.03;;;9.33;;
13698;SDS011;6921;53.642;9.956;2022-09-29T00:49:16;13.87;;;9.23;;
13698;SDS011;6921;53.642;9.956;2022-09-29T00:51:23;15.23;;;9.37;;
13698;SDS011;6921;53.642;9.956;2022-09-29T00:53:28;17.00;;;9.77;;
13698;SDS011;6921;53.642;9.956;2022-09-29T00:55:33;15.37;;;10.47;;
13698;SDS011;6921;53.642;9.956;2022-09-29T00:57:40;14.97;;;9.63;;
13698;SDS011;6921;53.642;9.956;2022-09-29T00:59:48;15.27;;;9.27;;
13698;SDS011;6921;53.642;9.956;2022-09-29T01:01:56;15.47;;;8.97;;
13698;SDS011;6921;53.642;9.956;2022-09-29T01:04:01;13.17;;;8.90;;
13698;SDS011;6921;53.642;9.956;2022-09-29T01:06:12;16.00;;;9.33;;
13698;SDS011;6921;53.642;9.956;2022-09-29T01:08:19;13.27;;;8.87;;
13698;SDS011;6921;53.642;9.956;2022-09-29T01:10:25;13.23;;;8.90;;
13698;SDS011;6921;53.642;9.956;2022-09-29T01:12:29;12.93;;;8.97;;
13698;SDS011;6921;53.642;9.956;2022-09-29T01:14:32;14.27;;;8.90;;
13698;SDS011;6921;53.642;9.956;2022-09-29T01:16:37;16.83;;;9.20;;
13698;SDS011;6921;53.642;9.956;2022-09-29T01:18:43;14.53;;;8.90;;
13698;SDS011;6921;53.642;9.956;2022-09-29T01:20:50;14.30;;;10.00;;
13698;SDS011;6921;53.642;9.956;2022-09-29T01:23:21;14.13;;;9.13;;
13698;SDS011;6921;53.642;9.956;2022-09-29T01:28:10;14.50;;;8.43;;
13698;SDS011;6921;53.642;9.956;2022-09-29T01:30:36;13.73;;;8.47;;
13698;SDS011;6921;53.642;9.956;2022-09-29T01:32:59;12.80;;;8.20;;
13698;SDS011;6921;53.642;9.956;2022-09-29T01:35:19;14.30;;;8.70;;
13698;SDS011;6921;53.642;9.956;2022-09-29T01:37:36;12.07;;;7.97;;
13698;SDS011;6921;53.642;9.956;2022-09-29T01:39:52;15.13;;;8.43;;
13698;SDS011;6921;53.642;9.956;2022-09-29T01:42:01;12.33;;;8.07;;
13698;SDS011;6921;53.642;9.956;2022-09-29T01:44:10;14.83;;;9.47;;
13698;SDS011;6921;53.642;9.956;2022-09-29T01:46:20;14.07;;;8.77;;
13698;SDS011;6921;53.642;9.956;2022-09-29T01:48:26;16.13;;;8.87;;
13698;SDS011;6921;53.642;9.956;2022-09-29T01:50:34;12.37;;;8.23;;
13698;SDS011;6921;53.642;9.956;2022-09-29T01:52:42;15.23;;;9.60;;
13698;SDS011;6921;53.642;9.956;2022-09-29T01:54:49;15.73;;;9.77;;
13698;SDS011;6921;53.642;9.956;2022-09-29T01:56:56;14.00;;;9.70;;
13698;SDS011;6921;53.642;9.956;2022-09-29T01:59:04;14.43;;;8.97;;
13698;SDS011;6921;53.642;9.956;2022-09-29T02:01:11;14.57;;;8.00;;
13698;SDS011;6921;53.642;9.956;2022-09-29T02:03:20;15.17;;;8.97;;
13698;SDS011;6921;53.642;9.956;2022-09-29T02:05:32;13.27;;;8.67;;
13698;SDS011;6921;53.642;9.956;2022-09-29T02:07:40;14.80;;;9.10;;
13698;SDS011;6921;53.642;9.956;2022-09-29T02:09:46;12.50;;;8.00;;
13698;SDS011;6921;53.642;9.956;2022-09-29T02:11:54;13.50;;;8.40;;
13698;SDS011;6921;53.642;9.956;2022-09-29T02:14:00;12.13;;;8.47;;
13698;SDS011;6921;53.642;9.956;2022-09-29T02:16:08;12.60;;;8.70;;
13698;SDS011;6921;53.642;9.956;2022-09-29T02:18:17;14.87;;;9.07;;
13698;SDS011;6921;53.642;9.956;2022-09-29T02:20:27;13.10;;;8.60;;
13698;SDS011;6921;53.642;9.956;2022-09-29T02:22:31;12.37;;;8.43;;
13698;SDS011;6921;53.642;9.956;2022-09-29T02:24:34;12.93;;;8.13;;
13698;SDS011;6921;53.642;9.956;2022-09-29T02:26:38;12.33;;;7.87;;
13698;SDS011;6921;53.642;9.956;2022-09-29T02:28:41;11.67;;;7.77;;
13698;SDS011;6921;53.642;9.956;2022-09-29T02:30:48;12.47;;;7.90;;
13698;SDS011;6921;53.642;9.956;2022-09-29T02:32:52;15.30;;;8.13;;
13698;SDS011;6921;53.642;9.956;2022-09-29T02:34:56;13.13;;;8.40;;
13698;SDS011;6921;53.642;9.956;2022-09-29T02:37:04;15.40;;;8.50;;
13698;SDS011;6921;53.642;9.956;2022-09-29T02:39:20;13.67;;;8.77;;
13698;SDS011;6921;53.642;9.956;2022-09-29T02:41:43;13.40;;;8.67;;
13698;SDS011;6921;53.642;9.956;2022-09-29T02:43:59;11.27;;;8.10;;
13698;SDS011;6921;53.642;9.956;2022-09-29T02:46:30;12.20;;;8.53;;
13698;SDS011;6921;53.642;9.956;2022-09-29T02:48:50;13.63;;;7.90;;
13698;SDS011;6921;53.642;9.956;2022-09-29T02:51:10;12.43;;;8.07;;
13698;SDS011;6921;53.642;9.956;2022-09-29T02:53:21;13.57;;;7.67;;
13698;SDS011;6921;53.642;9.956;2022-09-29T02:55:34;12.50;;;7.60;;
13698;SDS011;6921;53.642;9.956;2022-09-29T02:57:44;13.33;;;7.97;;
13698;SDS011;6921;53.642;9.956;2022-09-29T02:59:54;13.43;;;7.83;;
13698;SDS011;6921;53.642;9.956;2022-09-29T03:02:06;13.57;;;8.40;;
13698;SDS011;6921;53.642;9.956;2022-09-29T03:04:09;14.13;;;7.97;;
13698;SDS011;6921;53.642;9.956;2022-09-29T03:06:17;12.03;;;7.63;;
13698;SDS011;6921;53.642;9.956;2022-09-29T03:08:21;11.13;;;7.77;;
13698;SDS011;6921;53.642;9.956;2022-09-29T03:10:26;12.10;;;8.10;;
13698;SDS011;6921;53.642;9.956;2022-09-29T03:12:30;15.13;;;8.77;;
13698;SDS011;6921;53.642;9.956;2022-09-29T03:14:33;13.57;;;8.43;;
13698;SDS011;6921;53.642;9.956;2022-09-29T03:16:39;15.27;;;8.50;;
13698;SDS011;6921;53.642;9.956;2022-09-29T03:18:43;13.77;;;8.30;;
13698;SDS011;6921;53.642;9.956;2022-09-29T03:20:46;14.67;;;8.53;;
13698;SDS011;6921;53.642;9.956;2022-09-29T03:22:51;14.93;;;8.43;;
13698;SDS011;6921;53.642;9.956;2022-09-29T03:24:57;13.30;;;8.43;;
13698;SDS011;6921;53.642;9.956;2022-09-29T03:27:00;12.17;;;7.70;;
13698;SDS011;6921;53.642;9.956;2022-09-29T03:29:04;12.47;;;8.07;;
13698;SDS011;6921;53.642;9.956;2022-09-29T03:31:09;12.73;;;7.83;;
13698;SDS011;6921;53.642;9.956;2022-09-29T03:33:12;13.83;;;8.53;;
13698;SDS011;6921;53.642;9.956;2022-09-29T03:35:15;13.13;;;8.37;;
13698;SDS011;6921;53.642;9.956;2022-09-29T03:37:19;11.57;;;7.67;;
13698;SDS011;6921;53.642;9.956;2022-09-29T03:39:23;15.90;;;8.57;;
13698;SDS011;6921;53.642;9.956;2022-09-29T03:41:27;14.47;;;8.30;;
13698;SDS011;6921;53.642;9.956;2022-09-29T03:43:30;13.43;;;7.87;;
13698;SDS011;6921;53.642;9.956;2022-09-29T03:45:33;12.27;;;8.30;;
13698;SDS011;6921;53.642;9.956;2022-09-29T03:47:39;12.97;;;7.80;;
13698;SDS011;6921;53.642;9.956;2022-09-29T03:49:42;13.90;;;7.83;;
13698;SDS011;6921;53.642;9.956;2022-09-29T03:51:46;11.23;;;7.90;;
13698;SDS011;6921;53.642;9.956;2022-09-29T03:53:49;13.23;;;7.60;;
13698;SDS011;6921;53.642;9.956;2022-09-29T03:55:54;13.27;;;7.97;;
13698;SDS011;6921;53.642;9.956;2022-09-29T03:57:57;12.20;;;8.17;;
13698;SDS011;6921;53.642;9.956;2022-09-29T04:00:00;12.70;;;7.80;;
13698;SDS011;6921;53.642;9.956;2022-09-29T04:02:03;11.97;;;8.10;;
13698;SDS011;6921;53.642;9.956;2022-09-29T04:04:07;13.17;;;8.00;;
13698;SDS011;6921;53.642;9.956;2022-09-29T04:06:11;12.63;;;8.50;;
13698;SDS011;6921;53.642;9.956;2022-09-29T04:08:17;15.03;;;9.47;;
13698;SDS011;6921;53.642;9.956;2022-09-29T04:10:20;12.47;;;8.67;;
13698;SDS011;6921;53.642;9.956;2022-09-29T04:12:25;14.43;;;8.80;;
13698;SDS011;6921;53.642;9.956;2022-09-29T04:14:28;12.80;;;8.40;;
13698;SDS011;6921;53.642;9.956;2022-09-29T04:16:31;14.23;;;8.77;;
13698;SDS011;6921;53.642;9.956;2022-09-29T04:18:37;13.83;;;8.60;;
13698;SDS011;6921;53.642;9.956;2022-09-29T04:20:40;13.33;;;9.60;;
13698;SDS011;6921;53.642;9.956;2022-09-29T04:22:43;15.80;;;9.23;;
13698;SDS011;6921;53.642;9.956;2022-09-29T04:24:46;12.63;;;8.47;;
13698;SDS011;6921;53.642;9.956;2022-09-29T04:26:50;16.40;;;8.83;;
13698;SDS011;6921;53.642;9.956;2022-09-29T04:28:55;15.77;;;10.50;;
13698;SDS011;6921;53.642;9.956;2022-09-29T04:30:58;14.60;;;9.67;;
13698;SDS011;6921;53.642;9.956;2022-09-29T04:33:01;13.57;;;9.13;;
13698;SDS011;6921;53.642;9.956;2022-09-29T04:35:05;13.43;;;8.80;;
13698;SDS011;6921;53.642;9.956;2022-09-29T04:37:09;15.83;;;8.97;;
13698;SDS011;6921;53.642;9.956;2022-09-29T04:39:12;13.90;;;9.37;;
13698;SDS011;6921;53.642;9.956;2022-09-29T04:41:15;13.37;;;8.43;;
13698;SDS011;6921;53.642;9.956;2022-09-29T04:43:19;12.93;;;8.23;;
13698;SDS011;6921;53.642;9.956;2022-09-29T04:45:25;15.47;;;9.20;;
13698;SDS011;6921;53.642;9.956;2022-09-29T04:47:29;14.70;;;8.70;;
13698;SDS011;6921;53.642;9.956;2022-09-29T04:49:32;13.77;;;9.17;;
13698;SDS011;6921;53.642;9.956;2022-09-29T04:51:35;10.37;;;8.03;;
13698;SDS011;6921;53.642;9.956;2022-09-29T04:53:38;15.73;;;9.57;;
13698;SDS011;6921;53.642;9.956;2022-09-29T04:55:42;14.33;;;8.63;;
13698;SDS011;6921;53.642;9.956;2022-09-29T04:57:45;14.30;;;8.83;;
13698;SDS011;6921;53.642;9.956;2022-09-29T04:59:49;13.93;;;9.27;;
13698;SDS011;6921;53.642;9.956;2022-09-29T05:01:53;14.57;;;8.87;;
13698;SDS011;6921;53.642;9.956;2022-09-29T05:03:57;13.33;;;8.87;;
13698;SDS011;6921;53.642;9.956;2022-09-29T05:06:00;14.37;;;9.93;;
13698;SDS011;6921;53.642;9.956;2022-09-29T05:08:03;14.40;;;9.00;;
13698;SDS011;6921;53.642;9.956;2022-09-29T05:10:07;14.03;;;9.33;;
13698;SDS011;6921;53.642;9.956;2022-09-29T05:12:11;15.27;;;9.33;;
13698;SDS011;6921;53.642;9.956;2022-09-29T05:14:14;12.97;;;8.97;;
13698;SDS011;6921;53.642;9.956;2022-09-29T05:16:17;15.23;;;9.60;;
13698;SDS011;6921;53.642;9.956;2022-09-29T05:18:22;13.83;;;9.70;;
13698;SDS011;6921;53.642;9.956;2022-09-29T05:20:25;12.67;;;8.53;;
13698;SDS011;6921;53.642;9.956;2022-09-29T05:22:36;12.40;;;8.93;;
13698;SDS011;6921;53.642;9.956;2022-09-29T05:24:40;17.50;;;9.50;;
13698;SDS011;6921;53.642;9.956;2022-09-29T05:26:43;14.27;;;8.53;;
13698;SDS011;6921;53.642;9.956;2022-09-29T05:28:46;14.03;;;10.07;;
13698;SDS011;6921;53.642;9.956;2022-09-29T05:30:50;13.27;;;8.87;;
13698;SDS011;6921;53.642;9.956;2022-09-29T05:32:53;14.40;;;9.53;;
13698;SDS011;6921;53.642;9.956;2022-09-29T05:35:00;13.23;;;8.60;;
13698;SDS011;6921;53.642;9.956;2022-09-29T05:37:04;15.53;;;9.67;;
13698;SDS011;6921;53.642;9.956;2022-09-29T05:39:07;18.23;;;10.13;;
13698;SDS011;6921;53.642;9.956;2022-09-29T05:41:11;15.60;;;9.73;;
13698;SDS011;6921;53.642;9.956;2022-09-29T05:43:16;16.23;;;10.77;;
13698;SDS011;6921;53.642;9.956;2022-09-29T05:45:19;16.03;;;10.17;;
13698;SDS011;6921;53.642;9.956;2022-09-29T05:47:23;15.97;;;10.63;;
13698;SDS011;6921;53.642;9.956;2022-09-29T05:49:26;16.80;;;10.23;;
13698;SDS011;6921;53.642;9.956;2022-09-29T05:51:33;13.30;;;9.90;;
13698;SDS011;6921;53.642;9.956;2022-09-29T05:53:36;21.80;;;11.10;;
13698;SDS011;6921;53.642;9.956;2022-09-29T05:55:39;16.77;;;11.13;;
13698;SDS011;6921;53.642;9.956;2022-09-29T05:57:46;18.20;;;12.10;;
13698;SDS011;6921;53.642;9.956;2022-09-29T05:59:49;19.97;;;12.13;;
13698;SDS011;6921;53.642;9.956;2022-09-29T06:01:53;17.47;;;11.10;;
13698;SDS011;6921;53.642;9.956;2022-09-29T06:03:56;19.97;;;12.80;;
13698;SDS011;6921;53.642;9.956;2022-09-29T06:06:03;20.57;;;13.20;;
13698;SDS011;6921;53.642;9.956;2022-09-29T06:08:11;22.93;;;12.87;;
13698;SDS011;6921;53.642;9.956;2022-09-29T06:10:14;22.00;;;13.80;;
13698;SDS011;6921;53.642;9.956;2022-09-29T06:12:17;24.40;;;13.97;;
13698;SDS011;6921;53.642;9.956;2022-09-29T06:14:22;20.40;;;13.73;;
13698;SDS011;6921;53.642;9.956;2022-09-29T06:16:26;23.23;;;13.50;;
13698;SDS011;6921;53.642;9.956;2022-09-29T06:18:30;23.53;;;14.80;;
13698;SDS011;6921;53.642;9.956;2022-09-29T06:20:33;22.47;;;14.03;;
13698;SDS011;6921;53.642;9.956;2022-09-29T06:22:39;23.83;;;14.87;;
13698;SDS011;6921;53.642;9.956;2022-09-29T06:24:44;21.77;;;14.70;;
13698;SDS011;6921;53.642;9.956;2022-09-29T06:26:46;25.73;;;15.93;;
13698;SDS011;6921;53.642;9.956;2022-09-29T06:28:50;24.77;;;13.93;;
13698;SDS011;6921;53.642;9.956;2022-09-29T06:30:57;23.67;;;14.90;;
13698;SDS011;6921;53.642;9.956;2022-09-29T06:33:03;25.40;;;15.20;;
13698;SDS011;6921;53.642;9.956;2022-09-29T06:35:07;22.60;;;14.83;;
13698;SDS011;6921;53.642;9.956;2022-09-29T06:37:27;26.47;;;15.13;;
13698;SDS011;6921;53.642;9.956;2022-09-29T06:39:36;25.47;;;16.40;;
13698;SDS011;6921;53.642;9.956;2022-09-29T06:41:41;24.50;;;16.57;;
13698;SDS011;6921;53.642;9.956;2022-09-29T06:43:48;26.63;;;15.10;;
13698;SDS011;6921;53.642;9.956;2022-09-29T06:45:52;27.03;;;16.70;;
13698;SDS011;6921;53.642;9.956;2022-09-29T06:47:56;26.13;;;16.07;;
13698;SDS011;6921;53.642;9.956;2022-09-29T06:50:00;26.13;;;16.90;;
13698;SDS011;6921;53.642;9.956;2022-09-29T06:52:11;26.07;;;16.03;;
13698;SDS011;6921;53.642;9.956;2022-09-29T06:54:21;26.77;;;15.50;;
13698;SDS011;6921;53.642;9.956;2022-09-29T06:56:26;24.33;;;15.67;;
13698;SDS011;6921;53.642;9.956;2022-09-29T06:58:31;26.53;;;17.30;;
13698;SDS011;6921;53.642;9.956;2022-09-29T07:00:34;29.93;;;16.63;;
13698;SDS011;6921;53.642;9.956;2022-09-29T07:02:37;25.27;;;17.10;;
13698;SDS011;6921;53.642;9.956;2022-09-29T07:04:40;26.13;;;16.17;;
13698;SDS011;6921;53.642;9.956;2022-09-29T07:06:44;25.70;;;16.33;;
13698;SDS011;6921;53.642;9.956;2022-09-29T07:08:52;25.73;;;15.80;;
13698;SDS011;6921;53.642;9.956;2022-09-29T07:10:55;26.03;;;16.90;;
13698;SDS011;6921;53.642;9.956;2022-09-29T07:12:58;25.87;;;15.93;;
13698;SDS011;6921;53.642;9.956;2022-09-29T07:15:03;26.00;;;16.57;;
13698;SDS011;6921;53.642;9.956;2022-09-29T07:17:07;27.20;;;16.97;;
13698;SDS011;6921;53.642;9.956;2022-09-29T07:19:14;25.37;;;16.53;;
13698;SDS011;6921;53.642;9.956;2022-09-29T07:21:19;24.93;;;15.67;;
13698;SDS011;6921;53.642;9.956;2022-09-29T07:23:22;23.07;;;15.33;;
13698;SDS011;6921;53.642;9.956;2022-09-29T07:25:27;26.60;;;16.40;;
13698;SDS011;6921;53.642;9.956;2022-09-29T07:27:50;27.60;;;16.10;;
13698;SDS011;6921;53.642;9.956;2022-09-29T07:29:53;26.87;;;15.83;;
13698;SDS011;6921;53.642;9.956;2022-09-29T07:32:05;23.67;;;16.47;;
13698;SDS011;6921;53.642;9.956;2022-09-29T07:34:16;23.97;;;15.53;;
13698;SDS011;6921;53.642;9.956;2022-09-29T07:36:19;26.13;;;16.63;;
13698;SDS011;6921;53.642;9.956;2022-09-29T07:38:23;24.50;;;16.03;;
13698;SDS011;6921;53.642;9.956;2022-09-29T07:40:26;26.37;;;16.57;;
13698;SDS011;6921;53.642;9.956;2022-09-29T07:42:29;24.57;;;15.77;;
13698;SDS011;6921;53.642;9.956;2022-09-29T07:44:32;24.03;;;16.53;;
13698;SDS011;6921;53.642;9.956;2022-09-29T07:46:35;22.03;;;15.57;;
13698;SDS011;6921;53.642;9.956;2022-09-29T07:48:40;23.20;;;15.77;;
13698;SDS011;6921;53.642;9.956;2022-09-29T07:50:44;25.33;;;15.83;;
13698;SDS011;6921;53.642;9.956;2022-09-29T07:52:48;21.83;;;15.60;;
13698;SDS011;6921;53.642;9.956;2022-09-29T07:54:52;20.50;;;14.90;;
13698;SDS011;6921;53.642;9.956;2022-09-29T07:56:56;21.37;;;14.53;;
13698;SDS011;6921;53.642;9.956;2022-09-29T07:59:01;19.43;;;14.10;;
13698;SDS011;6921;53.642;9.956;2022-09-29T08:01:05;23.17;;;14.17;;
13698;SDS011;6921;53.642;9.956;2022-09-29T08:03:12;21.77;;;14.37;;
13698;SDS011;6921;53.642;9.956;2022-09-29T08:05:17;19.37;;;14.33;;
13698;SDS011;6921;53.642;9.956;2022-09-29T08:07:20;18.57;;;14.10;;
13698;SDS011;6921;53.642;9.956;2022-09-29T08:09:24;22.20;;;15.13;;
13698;SDS011;6921;53.642;9.956;2022-09-29T08:11:40;20.50;;;13.97;;
13698;SDS011;6921;53.642;9.956;2022-09-29T08:13:44;22.33;;;15.47;;
13698;SDS011;6921;53.642;9.956;2022-09-29T08:15:47;19.80;;;14.33;;
13698;SDS011;6921;53.642;9.956;2022-09-29T08:17:51;19.17;;;13.53;;
13698;SDS011;6921;53.642;9.956;2022-09-29T08:19:54;20.13;;;14.47;;
13698;SDS011;6921;53.642;9.956;2022-09-29T08:21:59;19.17;;;13.67;;
13698;SDS011;6921;53.642;9.956;2022-09-29T08:24:02;21.30;;;14.77;;
13698;SDS011;6921;53.642;9.956;2022-09-29T08:26:07;19.53;;;14.07;;
13698;SDS011;6921;53.642;9.956;2022-09-29T08:28:11;20.00;;;14.10;;
13698;SDS011;6921;53.642;9.956;2022-09-29T08:30:23;19.83;;;14.60;;
13698;SDS011;6921;53.642;9.956;2022-09-29T08:32:27;18.70;;;14.27;;
13698;SDS011;6921;53.642;9.956;2022-09-29T08:34:30;22.80;;;14.50;;
13698;SDS011;6921;53.642;9.956;2022-09-29T08:36:33;22.33;;;14.97;;
13698;SDS011;6921;53.642;9.956;2022-09-29T08:38:38;20.70;;;14.10;;
13698;SDS011;6921;53.642;9.956;2022-09-29T08:40:43;19.23;;;14.07;;
13698;SDS011;6921;53.642;9.956;2022-09-29T08:42:50;20.67;;;14.50;;
13698;SDS011;6921;53.642;9.956;2022-09-29T08:45:00;20.60;;;14.40;;
13698;SDS011;6921;53.642;9.956;2022-09-29T08:47:17;20.23;;;13.67;;
13698;SDS011;6921;53.642;9.956;2022-09-29T08:49:25;21.33;;;14.27;;
13698;SDS011;6921;53.642;9.956;2022-09-29T08:51:34;20.60;;;15.07;;
13698;SDS011;6921;53.642;9.956;2022-09-29T08:53:44;20.00;;;13.37;;
13698;SDS011;6921;53.642;9.956;2022-09-29T08:56:02;21.00;;;14.40;;
13698;SDS011;6921;53.642;9.956;2022-09-29T08:58:13;18.30;;;13.63;;
13698;SDS011;6921;53.642;9.956;2022-09-29T09:00:17;17.83;;;14.03;;
13698;SDS011;6921;53.642;9.956;2022-09-29T09:05:15;19.07;;;13.40;;
13698;SDS011;6921;53.642;9.956;2022-09-29T09:07:29;18.20;;;13.10;;
13698;SDS011;6921;53.642;9.956;2022-09-29T09:09:47;17.20;;;12.90;;
13698;SDS011;6921;53.642;9.956;2022-09-29T09:12:04;14.97;;;12.50;;
13698;SDS011;6921;53.642;9.956;2022-09-29T09:14:28;17.33;;;11.63;;
13698;SDS011;6921;53.642;9.956;2022-09-29T09:16:59;15.13;;;11.83;;
13698;SDS011;6921;53.642;9.956;2022-09-29T09:19:17;17.00;;;12.57;;
13698;SDS011;6921;53.642;9.956;2022-09-29T09:21:39;14.93;;;11.37;;
13698;SDS011;6921;53.642;9.956;2022-09-29T09:23:47;13.93;;;11.13;;
13698;SDS011;6921;53.642;9.956;2022-09-29T09:26:00;16.77;;;11.07;;
13698;SDS011;6921;53.642;9.956;2022-09-29T09:28:04;15.30;;;12.13;;
13698;SDS011;6921;53.642;9.956;2022-09-29T09:30:14;16.70;;;12.10;;
13698;SDS011;6921;53.642;9.956;2022-09-29T09:32:18;14.27;;;11.50;;
13698;SDS011;6921;53.642;9.956;2022-09-29T09:34:26;12.53;;;10.20;;
13698;SDS011;6921;53.642;9.956;2022-09-29T09:36:44;12.90;;;10.63;;
13698;SDS011;6921;53.642;9.956;2022-09-29T09:39:04;13.13;;;10.30;;
13698;SDS011;6921;53.642;9.956;2022-09-29T09:41:14;13.87;;;9.93;;
13698;SDS011;6921;53.642;9.956;2022-09-29T09:43:21;12.83;;;10.23;;
13698;SDS011;6921;53.642;9.956;2022-09-29T09:45:28;12.20;;;9.70;;
13698;SDS011;6921;53.642;9.956;2022-09-29T09:47:36;14.47;;;9.47;;
13698;SDS011;6921;53.642;9.956;2022-09-29T09:49:43;12.00;;;9.63;;
13698;SDS011;6921;53.642;9.956;2022-09-29T09:51:53;13.30;;;9.93;;
13698;SDS011;6921;53.642;9.956;2022-09-29T09:54:02;12.73;;;8.90;;
13698;SDS011;6921;53.642;9.956;2022-09-29T09:56:12;11.80;;;9.13;;
13698;SDS011;6921;53.642;9.956;2022-09-29T09:58:28;12.73;;;9.00;;
13698;SDS011;6921;53.642;9.956;2022-09-29T10:00:53;10.63;;;8.27;;
13698;SDS011;6921;53.642;9.956;2022-09-29T10:03:00;13.33;;;8.30;;
13698;SDS011;6921;53.642;9.956;2022-09-29T10:05:08;11.30;;;8.45;;
13698;SDS011;6921;53.642;9.956;2022-09-29T10:07:13;9.60;;;8.30;;
13698;SDS011;6921;53.642;9.956;2022-09-29T10:09:17;9.60;;;7.85;;
13698;SDS011;6921;53.642;9.956;2022-09-29T10:11:23;10.73;;;8.68;;
13698;SDS011;6921;53.642;9.956;2022-09-29T10:13:28;9.90;;;7.97;;
13698;SDS011;6921;53.642;9.956;2022-09-29T10:15:32;10.93;;;9.20;;
13698;SDS011;6921;53.642;9.956;2022-09-29T10:17:40;9.87;;;8.23;;
13698;SDS011;6921;53.642;9.956;2022-09-29T10:19:54;10.80;;;8.13;;
13698;SDS011;6921;53.642;9.956;2022-09-29T10:22:02;9.73;;;7.60;;
13698;SDS011;6921;53.642;9.956;2022-09-29T10:24:21;12.50;;;8.63;;
13698;SDS011;6921;53.642;9.956;2022-09-29T10:26:31;10.37;;;8.97;;
13698;SDS011;6921;53.642;9.956;2022-09-29T10:28:37;12.85;;;9.35;;
13698;SDS011;6921;53.642;9.956;2022-09-29T10:30:42;11.97;;;9.90;;
13698;SDS011;6921;53.642;9.956;2022-09-29T10:32:46;11.40;;;9.60;;
13698;SDS011;6921;53.642;9.956;2022-09-29T10:34:51;11.32;;;9.13;;
13698;SDS011;6921;53.642;9.956;2022-09-29T10:36:56;13.13;;;9.47;;
13698;SDS011;6921;53.642;9.956;2022-09-29T10:39:01;12.43;;;9.57;;
13698;SDS011;6921;53.642;9.956;2022-09-29T10:41:05;13.43;;;9.70;;
13698;SDS011;6921;53.642;9.956;2022-09-29T10:43:20;12.47;;;10.60;;
13698;SDS011;6921;53.642;9.956;2022-09-29T10:45:26;11.40;;;9.67;;
13698;SDS011;6921;53.642;9.956;2022-09-29T10:47:30;15.33;;;10.50;;
13698;SDS011;6921;53.642;9.956;2022-09-29T10:49:34;14.07;;;10.67;;
13698;SDS011;6921;53.642;9.956;2022-09-29T10:51:37;13.37;;;9.63;;
13698;SDS011;6921;53.642;9.956;2022-09-29T10:53:41;13.70;;;10.47;;
13698;SDS011;6921;53.642;9.956;2022-09-29T10:55:49;13.20;;;10.07;;
13698;SDS011;6921;53.642;9.956;2022-09-29T10:57:54;12.37;;;9.87;;
13698;SDS011;6921;53.642;9.956;2022-09-29T11:00:01;12.27;;;9.60;;
13698;SDS011;6921;53.642;9.956;2022-09-29T11:02:09;13.70;;;9.20;;
13698;SDS011;6921;53.642;9.956;2022-09-29T11:04:24;11.48;;;8.35;;
13698;SDS011;6921;53.642;9.956;2022-09-29T11:06:31;13.37;;;9.60;;
13698;SDS011;6921;53.642;9.956;2022-09-29T11:08:57;9.50;;;7.80;;
13698;SDS011;6921;53.642;9.956;2022-09-29T11:11:03;11.40;;;8.07;;
13698;SDS011;6921;53.642;9.956;2022-09-29T11:15:40;11.70;;;9.00;;
13698;SDS011;6921;53.642;9.956;2022-09-29T11:17:48;11.13;;;8.07;;
13698;SDS011;6921;53.642;9.956;2022-09-29T11:19:56;11.00;;;8.67;;
13698;SDS011;6921;53.642;9.956;2022-09-29T11:22:12;9.80;;;7.80;;
13698;SDS011;6921;53.642;9.956;2022-09-29T11:24:34;9.37;;;7.77;;
13698;SDS011;6921;53.642;9.956;2022-09-29T11:27:01;12.43;;;8.17;;
13698;SDS011;6921;53.642;9.956;2022-09-29T11:29:17;10.87;;;8.10;;
13698;SDS011;6921;53.642;9.956;2022-09-29T11:31:34;9.87;;;7.70;;
13698;SDS011;6921;53.642;9.956;2022-09-29T11:33:45;9.53;;;7.87;;
13698;SDS011;6921;53.642;9.956;2022-09-29T11:35:59;9.17;;;7.33;;
13698;SDS011;6921;53.642;9.956;2022-09-29T11:38:14;9.60;;;7.17;;
13698;SDS011;6921;53.642;9.956;2022-09-29T11:40:37;9.63;;;7.00;;
13698;SDS011;6921;53.642;9.956;2022-09-29T11:42:50;9.80;;;7.50;;
13698;SDS011;6921;53.642;9.956;2022-09-29T11:45:08;9.03;;;7.33;;
13698;SDS011;6921;53.642;9.956;2022-09-29T11:47:20;11.57;;;7.07;;
13698;SDS011;6921;53.642;9.956;2022-09-29T11:52:09;10.33;;;6.67;;
13698;SDS011;6921;53.642;9.956;2022-09-29T11:54:33;9.60;;;7.80;;
13698;SDS011;6921;53.642;9.956;2022-09-29T11:56:50;8.60;;;7.03;;
13698;SDS011;6921;53.642;9.956;2022-09-29T11:59:05;8.30;;;7.10;;
13698;SDS011;6921;53.642;9.956;2022-09-29T12:01:22;7.43;;;6.17;;
13698;SDS011;6921;53.642;9.956;2022-09-29T12:03:34;8.97;;;7.27;;
13698;SDS011;6921;53.642;9.956;2022-09-29T12:05:46;9.48;;;7.57;;
13698;SDS011;6921;53.642;9.956;2022-09-29T12:08:01;8.70;;;7.63;;
13698;SDS011;6921;53.642;9.956;2022-09-29T12:10:16;8.90;;;6.90;;
13698;SDS011;6921;53.642;9.956;2022-09-29T12:12:37;10.68;;;7.03;;
13698;SDS011;6921;53.642;9.956;2022-09-29T12:14:52;9.25;;;6.93;;
13698;SDS011;6921;53.642;9.956;2022-09-29T12:17:13;9.35;;;7.15;;
13698;SDS011;6921;53.642;9.956;2022-09-29T12:19:22;9.93;;;7.28;;
13698;SDS011;6921;53.642;9.956;2022-09-29T12:21:28;8.45;;;6.93;;
13698;SDS011;6921;53.642;9.956;2022-09-29T12:23:35;8.10;;;6.38;;
13698;SDS011;6921;53.642;9.956;2022-09-29T12:25:42;6.65;;;5.95;;
13698;SDS011;6921;53.642;9.956;2022-09-29T12:27:54;7.60;;;5.68;;
13698;SDS011;6921;53.642;9.956;2022-09-29T12:30:03;6.63;;;5.70;;
13698;SDS011;6921;53.642;9.956;2022-09-29T12:32:17;6.50;;;4.90;;
13698;SDS011;6921;53.642;9.956;2022-09-29T12:34:27;6.30;;;4.70;;
13698;SDS011;6921;53.642;9.956;2022-09-29T12:36:40;5.75;;;4.88;;
13698;SDS011;6921;53.642;9.956;2022-09-29T12:38:50;5.05;;;4.47;;
13698;SDS011;6921;53.642;9.956;2022-09-29T12:41:00;4.90;;;4.40;;
13698;SDS011;6921;53.642;9.956;2022-09-29T12:43:09;4.68;;;4.00;;
13698;SDS011;6921;53.642;9.956;2022-09-29T12:45:19;5.47;;;3.92;;
13698;SDS011;6921;53.642;9.956;2022-09-29T12:47:35;5.00;;;4.45;;
13698;SDS011;6921;53.642;9.956;2022-09-29T12:49:57;4.45;;;4.05;;
13698;SDS011;6921;53.642;9.956;2022-09-29T12:52:05;5.95;;;5.35;;
13698;SDS011;6921;53.642;9.956;2022-09-29T12:54:17;5.30;;;4.63;;
13698;SDS011;6921;53.642;9.956;2022-09-29T12:56:25;6.38;;;4.78;;
13698;SDS011;6921;53.642;9.956;2022-09-29T12:58:36;5.72;;;4.82;;